Hlavní strana
METAR-TAF:

METAR-TAF

Letiště :

Blue Grass Airport

Lexington, Kentucky, Spojené státy americké

zeměpisná šířka: 38-02-27N, zeměpisná délka: 084-36-21W, výška: 298 m

Aktuální stav počasí

Zpráva byla vytvořena před 43 minutami, v 12:54 UTC
Jihojihovýchodní vítr 6 kt
Teplota 22°C
Vlhkost vzduchu 83%
Tlak 1019 hPa
Viditelnost: 16.1 km
Jasno

METAR: KLEX 261254Z 15006KT 10SM CLR 22/19 A3010 RMK AO2 SLP185 T02220189

Čas: 09:37 (13:37 UTC)

Předpověď počasí

Zpráva byla vytvořena před 2 hodinami a 17 minutami, v 11:20 UTC
Předpověď platná od 26 v 12 UTC do 27 v 12 UTC
Jihovýchodní vítr 5 kt
Viditelnost: 10 km
Polojasno ve výšce 25000 ft
Od 26 v 1500 UTC
Jižní vítr 5 kt
Viditelnost: 10 km
Polojasno ve výšce 4000 ft
Pravděpodobnost 30%
od 26 v 21 UTC do 26 v 24 UTC
Viditelnost: 4.8 km
Oblačno až skoro zataženo ve výšce 3500 ft, Cumulonimbus.
bouřka, slabý déšť, kouřmo

TAF: KLEX 261120Z 2612/2712 14005KT P6SM SCT250 FM261500 19005KT P6SM SCT040 PROB30 2621/2624 3SM -TSRA BR BKN035CB

Stav a předpovědi počasí z více než 4 000 letišť (zprávy METAR a TAF).

Červené a žluté tečky na mapě představují dostupné meteorologické stanice.

Když kurzor umístíte na tečku, zobrazí se název stanice.

Pak kliknutím zobrazíte stav a předpověď počasí.

Chcete-li změnit mapu, kliknutím na zelené tlačítko se znaménkem +mapu přiblížíte, kliknutím na zelené tlačítko se znaménkem – mapu oddálíte a kliknutím na zelené šipky přejdete na sousední mapy.


METAR-TAF: